Time;durP1;ratioP1;P1;durP2;ratioP2;P2;SDS_P1;SDS_P2;PMS_P1;PMS_P2;Temp;Humidity;BMP_temperature;BMP_pressure;BME280_temperature;BME280_humidity;BME280_pressure;Samples;Min_cycle;Max_cycle;Signal;HPM_P1;HPM_P2
2020/12/30 00:00:46;;;;;;;21.52;13.25;;;4.30;94.20;;;;;;5093984;28;20453;-48
2020/12/30 00:03:12;;;;;;;23.52;14.30;;;4.30;94.20;;;;;;5084606;28;20332;-48
2020/12/30 00:05:38;;;;;;;24.08;13.30;;;4.30;94.20;;;;;;5093328;28;20046;-48
2020/12/30 00:08:06;;;;;;;22.90;14.18;;;4.30;94.10;;;;;;5092943;28;20036;-48
2020/12/30 00:10:32;;;;;;;25.65;14.48;;;4.20;94.00;;;;;;5092990;28;20043;-48
2020/12/30 00:12:58;;;;;;;22.05;13.95;;;4.20;94.10;;;;;;5092790;28;20036;-48
2020/12/30 00:15:24;;;;;;;26.67;14.30;;;4.10;94.10;;;;;;5092370;28;20495;-48
2020/12/30 00:17:49;;;;;;;25.02;15.60;;;4.20;94.30;;;;;;5092528;28;20595;-48
2020/12/30 00:20:17;;;;;;;25.17;14.85;;;4.10;94.30;;;;;;5092908;28;20412;-49
2020/12/30 00:22:45;;;;;;;22.15;13.73;;;4.10;94.30;;;;;;5091847;28;20044;-50
2020/12/30 00:25:12;;;;;;;24.73;15.07;;;4.10;94.40;;;;;;5092567;28;20040;-50
2020/12/30 00:27:39;;;;;;;24.00;15.25;;;4.10;94.20;;;;;;5093111;28;20066;-49
2020/12/30 00:30:10;;;;;;;23.70;14.57;;;4.10;94.30;;;;;;5093893;28;20032;-51
2020/12/30 00:32:38;;;;;;;26.10;15.95;;;4.10;94.30;;;;;;5091911;28;20068;-48
2020/12/30 00:35:04;;;;;;;27.38;16.08;;;4.00;94.30;;;;;;5092912;28;20067;-51
2020/12/30 00:37:30;;;;;;;28.05;16.02;;;4.00;94.20;;;;;;5095161;28;20115;-49
2020/12/30 00:39:57;;;;;;;27.80;16.65;;;4.00;94.30;;;;;;5096969;28;20239;-49
2020/12/30 00:42:28;;;;;;;29.90;17.15;;;4.00;94.40;;;;;;5095667;28;20275;-50
2020/12/30 00:44:54;;;;;;;27.92;15.18;;;4.00;94.40;;;;;;5097381;28;20526;-48
2020/12/30 00:47:19;;;;;;;26.15;16.42;;;4.00;94.40;;;;;;5096787;28;20048;-50
2020/12/30 00:49:45;;;;;;;27.98;16.10;;;4.10;94.60;;;;;;5101614;28;20529;-49
2020/12/30 00:52:13;;;;;;;28.83;16.55;;;4.10;94.70;;;;;;5098895;28;20039;-52
2020/12/30 00:54:39;;;;;;;33.95;16.77;;;4.10;94.60;;;;;;5089165;28;20400;-48
2020/12/30 00:57:04;;;;;;;27.10;16.48;;;4.10;94.60;;;;;;5096059;28;20066;-49
2020/12/30 00:59:31;;;;;;;27.85;17.15;;;4.10;94.50;;;;;;5096493;28;20055;-48
2020/12/30 01:01:57;;;;;;;27.77;16.13;;;4.10;94.50;;;;;;5096775;28;20071;-49
2020/12/30 01:04:25;;;;;;;31.58;17.20;;;4.10;94.60;;;;;;5095568;28;20036;-48
2020/12/30 01:06:52;;;;;;;30.48;16.25;;;4.20;94.50;;;;;;5093551;28;20067;-48
2020/12/30 01:09:23;;;;;;;25.60;15.95;;;4.20;94.50;;;;;;5102764;28;20107;-49
2020/12/30 01:11:48;;;;;;;29.05;17.60;;;4.20;94.40;;;;;;5116981;28;20036;-49
2020/12/30 01:14:22;;;;;;;27.25;16.73;;;4.20;94.60;;;;;;5097838;28;20047;-48
2020/12/30 01:16:51;;;;;;;27.30;16.30;;;4.20;94.40;;;;;;5099752;28;20044;-49
2020/12/30 01:19:17;;;;;;;27.73;16.73;;;4.20;94.60;;;;;;5099702;28;20040;-47
2020/12/30 01:21:43;;;;;;;29.33;16.33;;;4.20;94.40;;;;;;5099265;28;20156;-48
2020/12/30 01:24:09;;;;;;;28.50;15.77;;;4.20;94.20;;;;;;5096012;28;20032;-48
2020/12/30 01:26:38;;;;;;;28.05;15.52;;;4.20;94.30;;;;;;5095238;28;20070;-48
2020/12/30 01:29:05;;;;;;;33.78;16.50;;;4.20;94.30;;;;;;5095475;28;20127;-50
2020/12/30 01:31:32;;;;;;;29.75;16.23;;;4.20;94.30;;;;;;5096640;28;20085;-51
2020/12/30 01:33:59;;;;;;;29.20;16.00;;;4.20;94.00;;;;;;5096698;28;20365;-50
2020/12/30 01:36:25;;;;;;;33.35;16.88;;;4.20;94.20;;;;;;5095091;28;20043;-50
2020/12/30 01:38:52;;;;;;;33.65;16.17;;;4.20;94.40;;;;;;5092952;28;20044;-49
2020/12/30 01:41:18;;;;;;;27.00;15.35;;;4.20;94.30;;;;;;5093813;28;20107;-49
2020/12/30 01:44:03;;;;;;;29.92;16.90;;;4.20;94.60;;;;;;5092914;28;20129;-48
2020/12/30 01:46:44;;;;;;;30.60;16.60;;;4.20;94.20;;;;;;5093943;28;20043;-48
2020/12/30 01:49:19;;;;;;;30.15;16.55;;;4.10;94.10;;;;;;5092730;28;20040;-48
2020/12/30 01:51:45;;;;;;;31.17;16.48;;;4.10;94.00;;;;;;5092373;28;20039;-48
2020/12/30 01:54:12;;;;;;;26.38;15.05;;;4.10;94.40;;;;;;5093319;28;20032;-51
2020/12/30 01:56:38;;;;;;;30.60;16.60;;;4.10;94.40;;;;;;5092239;28;20044;-48
2020/12/30 01:59:06;;;;;;;33.03;16.85;;;4.10;94.00;;;;;;5092150;28;20043;-48
2020/12/30 02:01:42;;;;;;;31.60;16.65;;;4.00;94.00;;;;;;5094727;28;20040;-48
2020/12/30 02:04:10;;;;;;;28.17;15.82;;;4.00;94.00;;;;;;5092106;28;20484;-50
2020/12/30 02:06:37;;;;;;;32.85;16.38;;;3.90;94.00;;;;;;5092482;28;20039;-48
2020/12/30 02:09:04;;;;;;;35.40;17.88;;;3.90;93.80;;;;;;5090934;28;20036;-47
2020/12/30 02:11:31;;;;;;;30.45;16.85;;;3.80;94.10;;;;;;5092582;28;20040;-48
2020/12/30 02:14:00;;;;;;;29.10;16.35;;;3.80;94.20;;;;;;5091012;28;20047;-47
2020/12/30 02:16:27;;;;;;;31.42;15.77;;;3.80;93.80;;;;;;5080512;28;20119;-48
2020/12/30 02:18:53;;;;;;;30.77;16.50;;;3.80;94.40;;;;;;5092392;28;20058;-47
2020/12/30 02:21:19;;;;;;;29.10;15.88;;;3.80;94.20;;;;;;5092380;28;20063;-48
2020/12/30 02:23:46;;;;;;;27.42;14.63;;;3.80;94.30;;;;;;5092197;28;20040;-48
2020/12/30 02:26:12;;;;;;;31.20;15.30;;;3.80;94.00;;;;;;5086278;28;20041;-48
2020/12/30 02:28:39;;;;;;;31.30;16.55;;;3.80;94.20;;;;;;5092632;28;20044;-48
2020/12/30 02:31:05;;;;;;;31.23;15.95;;;3.70;94.10;;;;;;5074294;28;20040;-48
2020/12/30 02:33:31;;;;;;;29.63;16.58;;;3.70;94.10;;;;;;5090870;28;20130;-48
2020/12/30 02:35:57;;;;;;;31.08;16.40;;;3.70;93.90;;;;;;5091355;28;20047;-49
2020/12/30 02:38:24;;;;;;;29.58;15.88;;;3.60;94.10;;;;;;5092325;28;20071;-49
2020/12/30 02:40:51;;;;;;;34.55;15.95;;;3.60;94.00;;;;;;5092991;28;20044;-53
2020/12/30 02:43:16;;;;;;;27.73;15.13;;;3.60;93.90;;;;;;5090516;28;20052;-49
2020/12/30 02:45:43;;;;;;;30.10;15.05;;;3.60;93.90;;;;;;5092736;28;20052;-50
2020/12/30 02:48:09;;;;;;;30.48;15.20;;;3.50;93.90;;;;;;5093832;28;20055;-49
2020/12/30 02:50:36;;;;;;;31.83;15.32;;;3.50;93.90;;;;;;5095798;28;20075;-48
2020/12/30 02:53:01;;;;;;;28.92;15.70;;;3.50;94.10;;;;;;5095291;28;20072;-48
2020/12/30 02:55:27;;;;;;;28.75;15.35;;;3.50;94.10;;;;;;5095553;28;20097;-48
2020/12/30 02:57:52;;;;;;;28.35;14.68;;;3.50;94.00;;;;;;5095448;28;20519;-47
2020/12/30 03:00:18;;;;;;;28.98;15.57;;;3.50;94.00;;;;;;5095790;28;20035;-48
2020/12/30 03:02:44;;;;;;;27.48;15.30;;;3.50;94.00;;;;;;5094345;28;20442;-47
2020/12/30 03:05:09;;;;;;;31.75;16.70;;;3.50;94.20;;;;;;5094971;28;20065;-48
2020/12/30 03:07:35;;;;;;;28.85;15.90;;;3.50;94.20;;;;;;5094436;28;20067;-48
2020/12/30 03:10:01;;;;;;;28.77;16.50;;;3.60;94.00;;;;;;5094874;28;20046;-48
2020/12/30 03:12:27;;;;;;;31.55;15.38;;;3.60;93.80;;;;;;5075811;28;20404;-48
2020/12/30 03:14:53;;;;;;;30.17;16.27;;;3.60;93.70;;;;;;5093662;28;20070;-48
2020/12/30 03:17:18;;;;;;;29.52;15.82;;;3.50;93.90;;;;;;5093959;28;20097;-49
2020/12/30 03:19:44;;;;;;;31.08;16.63;;;3.50;93.90;;;;;;5094086;28;20039;-49
2020/12/30 03:22:11;;;;;;;32.85;16.67;;;3.40;93.80;;;;;;5092538;28;20036;-48
2020/12/30 03:24:37;;;;;;;34.38;17.08;;;3.40;93.80;;;;;;5095167;28;20036;-50
2020/12/30 03:27:08;;;;;;;33.35;17.70;;;3.40;93.80;;;;;;5094953;28;20032;-48
2020/12/30 03:29:34;;;;;;;35.22;17.30;;;3.30;93.80;;;;;;5085191;28;20054;-49
2020/12/30 03:32:00;;;;;;;30.38;16.75;;;3.30;93.80;;;;;;5093852;28;20035;-50
2020/12/30 03:34:26;;;;;;;31.98;16.85;;;3.30;93.70;;;;;;5094690;28;20040;-49
2020/12/30 03:36:55;;;;;;;33.30;17.05;;;3.20;93.70;;;;;;5091293;28;20052;-48
2020/12/30 03:39:21;;;;;;;33.72;17.58;;;3.20;93.70;;;;;;5095057;28;20075;-50
2020/12/30 03:41:46;;;;;;;33.08;17.92;;;3.10;93.90;;;;;;5098034;28;20040;-48
2020/12/30 03:44:12;;;;;;;32.70;17.75;;;3.10;93.70;;;;;;5095522;28;20035;-48
2020/12/30 03:46:37;;;;;;;35.15;16.85;;;3.00;93.90;;;;;;5093862;28;20040;-49
2020/12/30 03:49:04;;;;;;;36.45;18.88;;;3.10;93.60;;;;;;5095509;28;20059;-50
2020/12/30 03:51:30;;;;;;;32.25;18.10;;;3.00;93.60;;;;;;5094834;28;20036;-49
2020/12/30 03:53:56;;;;;;;35.90;18.20;;;2.90;93.70;;;;;;5097491;28;20074;-50
2020/12/30 03:56:22;;;;;;;34.40;18.05;;;2.90;93.80;;;;;;5094456;28;20040;-49
2020/12/30 03:58:48;;;;;;;30.33;17.60;;;2.90;93.90;;;;;;5092718;28;20036;-48
2020/12/30 04:01:14;;;;;;;31.27;16.80;;;2.90;93.80;;;;;;5094670;28;20093;-48
2020/12/30 04:03:40;;;;;;;33.75;18.27;;;2.80;93.90;;;;;;5082574;28;20032;-47
2020/12/30 04:06:06;;;;;;;32.35;17.23;;;2.80;93.80;;;;;;5093163;28;20058;-49
2020/12/30 04:08:32;;;;;;;36.05;17.38;;;2.80;93.80;;;;;;5094290;28;20043;-47
2020/12/30 04:10:57;;;;;;;36.33;18.98;;;2.80;93.70;;;;;;5094060;28;20044;-48
2020/12/30 04:13:23;;;;;;;31.02;17.92;;;2.80;93.90;;;;;;5102359;28;20481;-48
2020/12/30 04:15:48;;;;;;;35.38;18.50;;;2.70;93.70;;;;;;5092452;28;20040;-49
2020/12/30 04:18:14;;;;;;;33.60;18.38;;;2.70;93.80;;;;;;5093463;28;20059;-47
2020/12/30 04:20:41;;;;;;;32.78;18.55;;;2.60;93.70;;;;;;5081124;28;20043;-49
2020/12/30 04:23:07;;;;;;;36.05;18.50;;;2.60;93.90;;;;;;5092770;28;20043;-47
2020/12/30 04:25:33;;;;;;;29.45;16.83;;;2.50;93.80;;;;;;5092450;28;20135;-47
2020/12/30 04:28:00;;;;;;;32.65;18.05;;;2.60;94.00;;;;;;5058747;28;20051;-49
2020/12/30 04:30:25;;;;;;;33.25;17.73;;;2.50;93.90;;;;;;5093046;28;20412;-48
2020/12/30 04:32:51;;;;;;;33.70;17.58;;;2.50;94.00;;;;;;5092392;28;20047;-49
2020/12/30 04:35:17;;;;;;;29.02;16.92;;;2.50;94.00;;;;;;5092578;28;20044;-47
2020/12/30 04:37:43;;;;;;;33.13;18.80;;;2.50;93.90;;;;;;5093247;28;20511;-47
2020/12/30 04:40:08;;;;;;;32.38;17.73;;;2.50;94.00;;;;;;5090383;28;20040;-47
2020/12/30 04:42:36;;;;;;;33.35;17.52;;;2.40;94.00;;;;;;5091571;28;20118;-47
2020/12/30 04:45:10;;;;;;;30.05;18.10;;;2.50;93.90;;;;;;5092760;28;20040;-50
2020/12/30 04:47:37;;;;;;;30.08;17.10;;;2.50;93.90;;;;;;5091632;28;20188;-47
2020/12/30 04:50:05;;;;;;;30.38;17.23;;;2.40;93.90;;;;;;5091284;28;20195;-47
2020/12/30 04:52:31;;;;;;;32.03;16.90;;;2.40;94.00;;;;;;5091720;28;20040;-50
2020/12/30 04:54:58;;;;;;;30.83;16.83;;;2.40;94.00;;;;;;5091948;28;20042;-49
2020/12/30 04:57:59;;;;;;;31.17;16.35;;;2.40;94.00;;;;;;5092765;28;20048;-48
2020/12/30 05:00:25;;;;;;;29.35;16.65;;;2.40;94.00;;;;;;5081621;28;20036;-48
2020/12/30 05:02:53;;;;;;;32.05;17.27;;;2.40;94.10;;;;;;5091730;28;20044;-47
2020/12/30 05:05:20;;;;;;;31.20;17.10;;;2.40;94.10;;;;;;5090300;28;20052;-49
2020/12/30 05:07:46;;;;;;;34.08;17.38;;;2.40;94.10;;;;;;5091549;28;20036;-48
2020/12/30 05:10:15;;;;;;;29.88;17.20;;;2.40;94.10;;;;;;5092053;28;20043;-48
2020/12/30 05:12:43;;;;;;;33.80;17.90;;;2.40;94.00;;;;;;5091599;28;20047;-48
2020/12/30 05:15:08;;;;;;;32.60;18.52;;;2.40;94.10;;;;;;5091184;28;20035;-48
2020/12/30 05:17:34;;;;;;;35.00;17.52;;;2.50;94.20;;;;;;5092076;28;20079;-49
2020/12/30 05:20:00;;;;;;;33.00;17.05;;;2.50;94.10;;;;;;5091585;28;20063;-51
2020/12/30 05:22:26;;;;;;;38.03;19.05;;;2.50;94.30;;;;;;5091959;28;20254;-47
2020/12/30 05:24:52;;;;;;;35.03;18.08;;;2.60;94.20;;;;;;5092529;28;20134;-51
2020/12/30 05:27:24;;;;;;;37.55;18.67;;;2.60;94.10;;;;;;5092321;28;20469;-50
2020/12/30 05:29:52;;;;;;;37.08;19.63;;;2.60;94.10;;;;;;5092630;28;20036;-48
2020/12/30 05:32:19;;;;;;;34.85;18.05;;;2.70;94.30;;;;;;5092601;28;20060;-49
2020/12/30 05:34:46;;;;;;;35.42;17.77;;;2.70;94.30;;;;;;5092559;28;20048;-48
2020/12/30 05:37:17;;;;;;;36.03;18.35;;;2.80;94.30;;;;;;5092600;28;20043;-51
2020/12/30 05:39:44;;;;;;;36.58;19.17;;;2.80;94.20;;;;;;5091980;28;20106;-48
2020/12/30 05:42:11;;;;;;;40.45;19.63;;;2.80;94.20;;;;;;5088008;28;20047;-50
2020/12/30 05:44:39;;;;;;;32.00;17.45;;;2.90;94.10;;;;;;5091416;28;20446;-48
2020/12/30 05:47:12;;;;;;;38.65;19.52;;;2.90;94.10;;;;;;5091385;28;20550;-48
2020/12/30 05:49:38;;;;;;;32.10;17.98;;;2.90;94.00;;;;;;5090025;28;20035;-47
2020/12/30 05:52:21;;;;;;;33.10;18.08;;;2.80;94.00;;;;;;5090236;28;20123;-53
2020/12/30 05:54:51;;;;;;;39.13;20.23;;;2.80;94.00;;;;;;5091147;28;20044;-48
2020/12/30 05:57:24;;;;;;;39.73;19.07;;;2.80;94.00;;;;;;5091741;28;20200;-47
2020/12/30 05:59:54;;;;;;;35.10;18.67;;;2.80;94.00;;;;;;5091137;28;20035;-48
2020/12/30 06:02:25;;;;;;;32.13;19.00;;;2.70;93.90;;;;;;5091267;28;20051;-50
2020/12/30 06:05:08;;;;;;;37.78;19.88;;;2.70;94.00;;;;;;5091475;28;20071;-50
2020/12/30 06:07:40;;;;;;;41.72;20.63;;;2.70;93.90;;;;;;5090764;28;20048;-47
2020/12/30 06:10:08;;;;;;;39.33;20.63;;;2.70;94.00;;;;;;5091092;28;20078;-48
2020/12/30 06:12:49;;;;;;;36.78;19.23;;;2.70;94.00;;;;;;5089976;28;20043;-48
2020/12/30 06:15:20;;;;;;;39.20;20.55;;;2.60;94.00;;;;;;5088728;28;20038;-47
2020/12/30 06:17:53;;;;;;;41.75;20.85;;;2.60;94.00;;;;;;5089382;28;20048;-48
2020/12/30 06:20:32;;;;;;;38.28;20.30;;;2.60;94.10;;;;;;5088135;28;20269;-48
2020/12/30 06:23:12;;;;;;;43.28;21.83;;;2.50;94.00;;;;;;5089762;28;20043;-49
2020/12/30 06:25:40;;;;;;;37.60;20.98;;;2.50;94.00;;;;;;5090597;28;20046;-47
2020/12/30 06:28:19;;;;;;;37.58;20.95;;;2.50;94.00;;;;;;5091002;28;20093;-48
2020/12/30 06:30:47;;;;;;;41.17;21.30;;;2.60;94.00;;;;;;5080306;28;20039;-48
2020/12/30 06:33:16;;;;;;;37.65;20.45;;;2.60;94.00;;;;;;5089776;28;20043;-51
2020/12/30 06:35:43;;;;;;;40.00;22.38;;;2.50;94.00;;;;;;5089745;28;20032;-49
2020/12/30 06:38:27;;;;;;;38.78;21.98;;;2.50;93.90;;;;;;5091409;28;20044;-48
2020/12/30 06:40:57;;;;;;;41.55;21.58;;;2.50;94.00;;;;;;5083029;28;20044;-48
2020/12/30 06:43:43;;;;;;;39.85;21.83;;;2.50;94.00;;;;;;5089339;28;20361;-48
2020/12/30 06:46:32;;;;;;;38.15;21.55;;;2.50;93.90;;;;;;5084742;28;20412;-48
2020/12/30 06:49:06;;;;;;;40.08;21.42;;;2.40;94.00;;;;;;5082657;28;20058;-49
2020/12/30 06:51:37;;;;;;;41.28;21.92;;;2.40;94.00;;;;;;5089929;28;20070;-51
2020/12/30 06:54:04;;;;;;;44.17;22.70;;;2.40;94.00;;;;;;5089946;28;20063;-48
2020/12/30 06:56:41;;;;;;;38.60;21.40;;;2.30;94.00;;;;;;5091660;28;20040;-51
2020/12/30 06:59:17;;;;;;;39.63;22.00;;;2.30;94.10;;;;;;5090201;28;20450;-50
2020/12/30 07:01:58;;;;;;;40.10;21.90;;;2.30;94.10;;;;;;5090885;28;20040;-48
2020/12/30 07:04:29;;;;;;;39.28;22.02;;;2.40;94.10;;;;;;5090174;28;20053;-48
2020/12/30 07:06:56;;;;;;;40.17;22.75;;;2.30;94.20;;;;;;5095044;28;20068;-49
2020/12/30 07:09:40;;;;;;;46.15;23.85;;;2.30;94.10;;;;;;5090600;28;20103;-49
2020/12/30 07:12:08;;;;;;;46.10;24.17;;;2.30;94.10;;;;;;5090481;28;20035;-49
2020/12/30 07:14:35;;;;;;;41.55;23.52;;;2.40;94.10;;;;;;5090446;28;20043;-48
2020/12/30 07:17:08;;;;;;;46.22;23.83;;;2.40;94.20;;;;;;5094494;28;20055;-50
2020/12/30 07:19:36;;;;;;;49.25;24.05;;;2.40;94.20;;;;;;5090989;28;20423;-49
2020/12/30 07:22:13;;;;;;;43.47;24.00;;;2.40;94.20;;;;;;5089438;28;20511;-49
2020/12/30 07:24:50;;;;;;;42.67;24.58;;;2.40;94.20;;;;;;5089774;28;20068;-50
2020/12/30 07:27:17;;;;;;;44.40;23.25;;;2.50;94.00;;;;;;5088696;28;20063;-48
2020/12/30 07:29:45;;;;;;;42.13;22.75;;;2.50;94.10;;;;;;5073140;28;20036;-50
2020/12/30 07:32:13;;;;;;;41.08;22.13;;;2.50;94.10;;;;;;5090121;28;20090;-49
2020/12/30 07:34:41;;;;;;;46.92;23.30;;;2.50;94.00;;;;;;5092955;28;20036;-47
2020/12/30 07:37:07;;;;;;;43.47;24.75;;;2.40;94.00;;;;;;5094626;28;20040;-49
2020/12/30 07:39:39;;;;;;;41.25;23.77;;;2.30;94.00;;;;;;5088071;28;20061;-51
2020/12/30 07:42:12;;;;;;;45.58;23.90;;;2.40;94.10;;;;;;5092605;28;20097;-52
2020/12/30 07:44:58;;;;;;;49.95;23.38;;;2.30;94.10;;;;;;5101260;28;20111;-49
2020/12/30 07:47:26;;;;;;;49.35;24.85;;;2.30;94.20;;;;;;5092795;28;20492;-49
2020/12/30 07:50:02;;;;;;;40.80;22.63;;;2.30;94.20;;;;;;5092264;28;20052;-48
2020/12/30 07:52:31;;;;;;;43.30;24.00;;;2.30;94.30;;;;;;5093051;28;20388;-51
2020/12/30 07:54:56;;;;;;;50.65;23.20;;;2.40;94.30;;;;;;5091004;28;20048;-47
2020/12/30 07:57:25;;;;;;;43.47;21.75;;;2.40;94.20;;;;;;5094375;28;20042;-48
2020/12/30 07:59:51;;;;;;;44.05;23.10;;;2.40;94.30;;;;;;5094091;28;20052;-48
2020/12/30 08:02:18;;;;;;;39.78;21.67;;;2.40;94.30;;;;;;5093844;28;20044;-49
2020/12/30 08:04:58;;;;;;;44.78;22.80;;;2.40;94.30;;;;;;5093145;28;20424;-50
2020/12/30 08:07:28;;;;;;;43.80;22.75;;;2.50;94.40;;;;;;5093826;28;20101;-49
2020/12/30 08:09:54;;;;;;;40.88;23.23;;;2.50;94.30;;;;;;5093406;28;20048;-50
2020/12/30 08:12:19;;;;;;;44.22;22.90;;;2.50;94.30;;;;;;5093248;28;20097;-50
2020/12/30 08:14:45;;;;;;;46.35;23.17;;;2.50;94.30;;;;;;5093101;28;20036;-49
2020/12/30 08:17:15;;;;;;;40.80;21.63;;;2.50;94.30;;;;;;5093664;28;20085;-49
2020/12/30 08:19:43;;;;;;;38.72;20.58;;;2.60;94.40;;;;;;5093227;28;20122;-49
2020/12/30 08:22:14;;;;;;;42.28;21.63;;;2.60;94.40;;;;;;5091524;28;20036;-48
2020/12/30 08:24:51;;;;;;;40.40;21.02;;;2.60;94.40;;;;;;5091122;28;20176;-48
2020/12/30 08:27:25;;;;;;;39.20;22.00;;;2.70;94.40;;;;;;5089959;28;20451;-52
2020/12/30 08:29:51;;;;;;;39.50;21.20;;;2.70;94.30;;;;;;5106093;28;20048;-50
2020/12/30 08:32:32;;;;;;;39.13;19.85;;;2.70;94.20;;;;;;5094191;28;20496;-48
2020/12/30 08:35:20;;;;;;;34.72;18.63;;;2.80;94.30;;;;;;5098434;28;20036;-48
2020/12/30 08:37:50;;;;;;;41.17;20.92;;;2.80;94.30;;;;;;5092037;28;20040;-49
2020/12/30 08:40:24;;;;;;;39.50;20.90;;;2.80;94.30;;;;;;5092488;28;20089;-50
2020/12/30 08:42:52;;;;;;;39.03;20.98;;;2.90;94.20;;;;;;5085737;28;20048;-48
2020/12/30 08:45:31;;;;;;;37.60;19.80;;;2.90;94.30;;;;;;5086776;28;20063;-48
2020/12/30 08:47:58;;;;;;;41.15;21.75;;;3.00;94.30;;;;;;5094380;28;20526;-49
2020/12/30 08:50:27;;;;;;;41.42;20.65;;;3.00;94.30;;;;;;5096946;28;20408;-49
2020/12/30 08:52:56;;;;;;;36.75;20.17;;;3.00;94.30;;;;;;5085579;28;20464;-51
2020/12/30 08:55:22;;;;;;;38.80;20.75;;;3.00;94.30;;;;;;5091878;28;20044;-48
2020/12/30 08:57:49;;;;;;;39.60;20.88;;;3.00;94.30;;;;;;5094232;28;20047;-50
2020/12/30 09:00:16;;;;;;;39.05;21.27;;;3.10;94.40;;;;;;5091134;28;20111;-51
2020/12/30 09:02:42;;;;;;;42.53;22.48;;;3.20;94.40;;;;;;5091356;28;20040;-52
2020/12/30 09:05:08;;;;;;;39.75;21.23;;;3.30;94.30;;;;;;5091632;28;20047;-48
2020/12/30 09:07:34;;;;;;;42.63;21.98;;;3.40;94.30;;;;;;5086831;28;20036;-51
2020/12/30 09:10:03;;;;;;;39.58;22.20;;;3.40;94.20;;;;;;5088379;28;20040;-50
2020/12/30 09:12:29;;;;;;;38.13;21.85;;;3.50;94.20;;;;;;5091059;28;20122;-50
2020/12/30 09:14:55;;;;;;;42.47;23.17;;;3.60;94.30;;;;;;5090213;28;20139;-48
2020/12/30 09:17:21;;;;;;;41.67;22.40;;;3.60;94.30;;;;;;5091205;28;20036;-47
2020/12/30 09:19:47;;;;;;;44.00;23.73;;;3.60;94.30;;;;;;5087913;28;20048;-48
2020/12/30 09:22:14;;;;;;;42.00;22.17;;;3.70;94.30;;;;;;5087858;28;20103;-47
2020/12/30 09:24:42;;;;;;;45.97;22.42;;;3.70;94.30;;;;;;5058608;28;20044;-50
2020/12/30 09:27:36;;;;;;;43.45;23.42;;;3.70;94.40;;;;;;5086498;28;20040;-50
2020/12/30 09:30:14;;;;;;;40.88;22.08;;;3.80;94.40;;;;;;5090028;28;20050;-49
2020/12/30 09:32:42;;;;;;;41.33;22.58;;;3.80;94.30;;;;;;5088935;28;20157;-50
2020/12/30 09:35:09;;;;;;;38.80;21.98;;;3.80;94.40;;;;;;5089727;28;20427;-49
2020/12/30 09:37:36;;;;;;;37.33;21.38;;;3.90;94.30;;;;;;5087519;28;20048;-51
2020/12/30 09:40:14;;;;;;;41.55;23.40;;;3.80;94.40;;;;;;5090746;28;20040;-50
2020/12/30 09:42:42;;;;;;;37.47;21.58;;;3.90;94.40;;;;;;5088239;28;20032;-51
2020/12/30 09:45:10;;;;;;;38.80;21.63;;;3.90;94.50;;;;;;5091384;28;20048;-50
2020/12/30 09:47:37;;;;;;;41.33;22.33;;;4.00;94.60;;;;;;5088706;28;20040;-51
2020/12/30 09:50:04;;;;;;;38.53;22.25;;;4.00;94.60;;;;;;5090928;28;20036;-49
2020/12/30 09:52:36;;;;;;;36.72;21.95;;;4.10;94.60;;;;;;5090261;28;20097;-51
2020/12/30 09:55:03;;;;;;;40.42;22.55;;;4.10;94.40;;;;;;5090641;28;20499;-50
2020/12/30 09:57:29;;;;;;;42.35;21.10;;;4.10;94.40;;;;;;5085965;28;20044;-51
2020/12/30 09:59:55;;;;;;;36.70;20.67;;;4.10;94.40;;;;;;5090901;28;20047;-51
2020/12/30 10:02:20;;;;;;;33.75;19.30;;;4.10;94.40;;;;;;5088015;28;20048;-49
2020/12/30 10:04:46;;;;;;;33.38;18.98;;;4.20;94.40;;;;;;5093173;28;21622;-47
2020/12/30 10:07:12;;;;;;;34.95;19.23;;;4.20;94.50;;;;;;5090047;28;20054;-48
2020/12/30 10:09:38;;;;;;;32.22;18.98;;;4.20;94.50;;;;;;5083892;28;20036;-48
2020/12/30 10:12:04;;;;;;;31.42;19.27;;;4.20;94.50;;;;;;5088239;28;20093;-50
2020/12/30 10:14:30;;;;;;;31.00;18.75;;;4.30;94.50;;;;;;5091991;28;20035;-51
2020/12/30 10:16:56;;;;;;;28.48;17.60;;;4.30;94.40;;;;;;5091295;28;20058;-49
2020/12/30 10:19:22;;;;;;;31.83;17.52;;;4.40;94.50;;;;;;5091820;28;20044;-48
2020/12/30 10:21:49;;;;;;;30.88;18.58;;;4.50;94.60;;;;;;5093068;28;20032;-50
2020/12/30 10:24:15;;;;;;;31.08;18.25;;;4.50;94.40;;;;;;5096811;28;20438;-48
2020/12/30 10:26:40;;;;;;;31.13;18.75;;;4.50;94.40;;;;;;5098353;28;20044;-48
2020/12/30 10:29:06;;;;;;;31.98;19.08;;;4.60;94.30;;;;;;5093555;28;20047;-47
2020/12/30 10:31:32;;;;;;;32.35;17.67;;;4.70;94.30;;;;;;5094081;28;20063;-49
2020/12/30 10:33:57;;;;;;;31.38;17.00;;;4.70;94.30;;;;;;5089677;28;20044;-49
2020/12/30 10:36:28;;;;;;;30.48;17.33;;;4.70;94.30;;;;;;5091016;28;20075;-47
2020/12/30 10:38:55;;;;;;;26.85;16.80;;;4.80;94.30;;;;;;5093526;28;20043;-48
2020/12/30 10:41:21;;;;;;;31.75;17.05;;;4.90;94.30;;;;;;5096263;28;20066;-47
2020/12/30 10:43:49;;;;;;;27.55;16.90;;;5.00;94.30;;;;;;5102196;28;20032;-48
2020/12/30 10:46:16;;;;;;;27.77;16.58;;;5.10;94.30;;;;;;5092623;28;20059;-48
2020/12/30 10:48:46;;;;;;;31.23;16.88;;;5.20;94.30;;;;;;5090729;28;20044;-47
2020/12/30 10:51:16;;;;;;;29.40;16.60;;;5.30;94.20;;;;;;5088035;28;20040;-48
2020/12/30 10:53:42;;;;;;;25.13;14.63;;;5.40;94.00;;;;;;5091764;28;20089;-49
2020/12/30 10:56:09;;;;;;;26.13;15.35;;;5.50;94.00;;;;;;5090539;28;20111;-48
2020/12/30 10:58:34;;;;;;;24.33;14.75;;;5.50;94.10;;;;;;5095853;28;20035;-50
2020/12/30 11:01:00;;;;;;;22.27;13.85;;;5.50;94.00;;;;;;5094887;28;20044;-49
2020/12/30 11:03:26;;;;;;;21.20;12.90;;;5.70;93.80;;;;;;5096241;28;20040;-52
2020/12/30 11:05:51;;;;;;;24.23;14.00;;;5.70;93.90;;;;;;5090793;28;20070;-49
2020/12/30 11:08:17;;;;;;;22.10;13.18;;;5.70;93.70;;;;;;5094984;28;20044;-48
2020/12/30 11:10:44;;;;;;;21.05;13.52;;;5.80;93.80;;;;;;5095863;28;20044;-48
2020/12/30 11:13:10;;;;;;;22.52;13.43;;;5.80;93.60;;;;;;5094189;28;20039;-48
2020/12/30 11:15:35;;;;;;;20.90;12.48;;;5.80;93.50;;;;;;5093324;28;20043;-48
2020/12/30 11:18:03;;;;;;;21.50;12.98;;;5.80;93.30;;;;;;5095344;28;20032;-49
2020/12/30 11:20:28;;;;;;;20.70;13.15;;;5.80;93.40;;;;;;5084829;28;20090;-48
2020/12/30 11:22:54;;;;;;;22.25;12.30;;;5.70;93.40;;;;;;5092920;28;20040;-50
2020/12/30 11:25:20;;;;;;;21.85;12.35;;;5.70;93.40;;;;;;5086605;28;20051;-48
2020/12/30 11:27:45;;;;;;;23.42;12.65;;;5.70;93.50;;;;;;5095354;28;20050;-48
2020/12/30 11:30:11;;;;;;;19.85;11.82;;;5.80;93.60;;;;;;5094800;28;20044;-48
2020/12/30 11:32:36;;;;;;;20.08;12.02;;;5.80;93.70;;;;;;5090642;28;20051;-48
2020/12/30 11:35:02;;;;;;;23.45;12.90;;;5.70;93.50;;;;;;5090799;28;20532;-48
2020/12/30 11:37:28;;;;;;;19.88;12.13;;;5.80;93.60;;;;;;5087687;28;20044;-48
2020/12/30 11:39:53;;;;;;;18.42;11.32;;;5.90;93.80;;;;;;5101392;28;20040;-47
2020/12/30 11:42:21;;;;;;;21.00;11.05;;;5.80;93.60;;;;;;5094185;28;20031;-49
2020/12/30 11:44:46;;;;;;;18.45;11.30;;;5.80;93.50;;;;;;5095682;28;20062;-49
2020/12/30 11:47:12;;;;;;;19.65;11.82;;;5.70;93.90;;;;;;5107576;28;20496;-49
2020/12/30 11:49:38;;;;;;;19.63;12.15;;;5.70;94.00;;;;;;5094789;28;20039;-48
2020/12/30 11:52:03;;;;;;;17.45;10.80;;;5.60;93.90;;;;;;5092324;28;20040;-51
2020/12/30 11:54:29;;;;;;;17.42;10.65;;;5.60;93.80;;;;;;5092796;28;20051;-48
2020/12/30 11:56:54;;;;;;;16.33;10.55;;;5.60;93.90;;;;;;5093779;28;20047;-48
2020/12/30 11:59:21;;;;;;;18.75;10.77;;;5.60;94.00;;;;;;5089577;28;20130;-48
2020/12/30 12:01:46;;;;;;;18.20;10.52;;;5.60;94.00;;;;;;5091712;28;20153;-48
2020/12/30 12:04:12;;;;;;;19.08;10.50;;;5.60;94.00;;;;;;5089520;28;20543;-47
2020/12/30 12:06:37;;;;;;;15.50;9.68;;;5.60;94.00;;;;;;5091703;28;20044;-48
2020/12/30 12:09:03;;;;;;;17.35;9.75;;;5.60;93.90;;;;;;5092187;28;20166;-48
2020/12/30 12:11:29;;;;;;;19.08;10.15;;;5.60;94.00;;;;;;5095522;28;20035;-48
2020/12/30 12:13:55;;;;;;;15.68;9.75;;;5.60;94.10;;;;;;5087543;28;20070;-48
2020/12/30 12:16:21;;;;;;;16.30;9.63;;;5.60;94.40;;;;;;5091239;28;20117;-48
2020/12/30 12:18:47;;;;;;;15.95;9.65;;;5.70;94.20;;;;;;5090585;28;20040;-48
2020/12/30 12:21:12;;;;;;;16.38;9.95;;;5.70;94.20;;;;;;5093407;28;20052;-50
2020/12/30 12:23:38;;;;;;;15.18;9.85;;;5.70;94.60;;;;;;5097524;28;20468;-47
2020/12/30 12:26:03;;;;;;;20.10;9.50;;;5.80;94.40;;;;;;5095843;28;20044;-48
2020/12/30 12:28:37;;;;;;;14.90;8.68;;;5.80;94.40;;;;;;5094108;28;20119;-52
2020/12/30 12:31:02;;;;;;;17.25;9.50;;;5.80;94.30;;;;;;5094130;28;20040;-48
2020/12/30 12:33:28;;;;;;;15.80;9.60;;;5.80;94.10;;;;;;5092354;28;20083;-51
2020/12/30 12:35:55;;;;;;;19.80;9.43;;;5.60;94.20;;;;;;5092236;28;20044;-47
2020/12/30 12:38:21;;;;;;;13.90;8.35;;;6.00;94.20;;;;;;5093038;28;20165;-47
2020/12/30 12:40:47;;;;;;;16.63;8.88;;;6.10;94.20;;;;;;5093590;28;20050;-50
2020/12/30 12:43:12;;;;;;;15.25;8.32;;;6.10;94.30;;;;;;5094625;28;20036;-48